createdAt,value
2023-02-02T00:01:34.251Z,17.90
2023-02-02T00:04:01.283Z,17.90
2023-02-02T00:06:30.034Z,17.00
2023-02-02T00:08:58.926Z,20.95
2023-02-02T00:11:26.904Z,16.90
2023-02-02T00:13:54.446Z,17.02
2023-02-02T00:16:27.461Z,17.90
2023-02-02T00:18:59.419Z,17.63
2023-02-02T00:21:26.569Z,18.92
2023-02-02T00:23:53.424Z,20.75
2023-02-02T00:26:21.502Z,19.08
2023-02-02T00:28:48.527Z,21.08
2023-02-02T00:31:15.501Z,17.67
2023-02-02T00:33:49.316Z,15.00
2023-02-02T00:36:16.886Z,15.68
2023-02-02T00:38:43.774Z,18.80
2023-02-02T00:41:10.751Z,13.30
2023-02-02T00:43:37.582Z,16.08
2023-02-02T00:46:04.635Z,13.18
2023-02-02T00:48:31.503Z,13.73
2023-02-02T00:50:58.397Z,13.95
2023-02-02T00:53:25.329Z,13.82
2023-02-02T00:55:52.123Z,16.40
2023-02-02T00:58:19.115Z,13.18
2023-02-02T01:00:46.103Z,11.55
2023-02-02T01:03:13.425Z,12.15
2023-02-02T01:05:40.319Z,12.05
2023-02-02T01:08:07.296Z,11.20
2023-02-02T01:10:34.793Z,14.00
2023-02-02T01:13:02.118Z,12.73
2023-02-02T01:15:30.570Z,12.50
2023-02-02T01:17:58.308Z,14.35
2023-02-02T01:20:25.946Z,14.00
2023-02-02T01:22:52.934Z,16.08
2023-02-02T01:25:20.223Z,13.80
2023-02-02T01:27:47.150Z,12.77
2023-02-02T01:30:14.364Z,13.02
2023-02-02T01:32:41.227Z,18.17
2023-02-02T01:35:08.255Z,12.70
2023-02-02T01:37:35.078Z,13.73
2023-02-02T01:40:02.070Z,15.65
2023-02-02T01:42:29.091Z,15.10
2023-02-02T01:45:19.488Z,13.27
2023-02-02T01:47:52.029Z,15.68
2023-02-02T01:50:21.620Z,15.45
2023-02-02T01:52:50.936Z,12.05
2023-02-02T01:55:21.090Z,14.82
2023-02-02T01:58:01.517Z,12.70
2023-02-02T02:00:28.521Z,14.43
2023-02-02T02:03:00.746Z,16.48
2023-02-02T02:05:40.634Z,12.23
2023-02-02T02:08:20.443Z,15.55
2023-02-02T02:10:47.495Z,14.35
2023-02-02T02:13:15.028Z,15.02
2023-02-02T02:16:07.993Z,15.30
2023-02-02T02:18:58.264Z,15.65
2023-02-02T02:22:03.521Z,15.35
2023-02-02T02:25:35.078Z,16.38
2023-02-02T02:28:01.869Z,16.80
2023-02-02T02:30:40.833Z,17.15
2023-02-02T02:33:23.775Z,15.25
2023-02-02T02:36:01.662Z,16.95
2023-02-02T02:38:34.615Z,16.25
2023-02-02T02:41:08.821Z,16.10
2023-02-02T02:43:43.197Z,13.48
2023-02-02T02:46:12.019Z,16.65
2023-02-02T02:48:39.341Z,16.42
2023-02-02T02:51:30.043Z,15.30
2023-02-02T02:53:57.024Z,15.60
2023-02-02T02:56:38.379Z,13.77
2023-02-02T02:59:17.100Z,13.88
2023-02-02T03:02:17.064Z,14.20
2023-02-02T03:05:06.209Z,14.35
2023-02-02T03:07:42.481Z,17.55
2023-02-02T03:10:13.551Z,15.70
2023-02-02T03:12:51.313Z,14.68
2023-02-02T03:15:19.352Z,15.43
2023-02-02T03:17:49.269Z,17.00
2023-02-02T03:20:16.621Z,15.43
2023-02-02T03:22:43.601Z,17.92
2023-02-02T03:25:11.848Z,18.15
2023-02-02T03:27:40.017Z,15.73
2023-02-02T03:30:11.156Z,15.70
2023-02-02T03:32:39.020Z,17.42
2023-02-02T03:35:06.233Z,18.75
2023-02-02T03:37:32.980Z,16.85
2023-02-02T03:40:00.446Z,16.30
2023-02-02T03:42:27.195Z,20.83
2023-02-02T03:44:53.993Z,17.88
2023-02-02T03:47:20.729Z,20.52
2023-02-02T03:49:47.632Z,17.58
2023-02-02T03:52:14.630Z,19.10
2023-02-02T03:54:41.477Z,21.88
2023-02-02T03:57:08.324Z,18.63
2023-02-02T03:59:35.136Z,18.50
2023-02-02T04:02:02.035Z,22.10
2023-02-02T04:04:28.856Z,20.20
2023-02-02T04:06:56.126Z,21.88
2023-02-02T04:09:22.993Z,24.02
2023-02-02T04:11:49.809Z,21.98
2023-02-02T04:14:16.785Z,23.52
2023-02-02T04:16:43.637Z,21.80
2023-02-02T04:19:12.875Z,21.50
2023-02-02T04:21:40.311Z,25.15
2023-02-02T04:24:10.942Z,23.88
2023-02-02T04:26:38.014Z,24.30
2023-02-02T04:29:04.959Z,26.63
2023-02-02T04:31:32.093Z,28.15
2023-02-02T04:33:59.733Z,24.60
2023-02-02T04:36:27.148Z,25.83
2023-02-02T04:38:55.266Z,24.80
2023-02-02T04:41:22.891Z,27.67
2023-02-02T04:43:49.750Z,24.83
2023-02-02T04:46:16.661Z,24.27
2023-02-02T04:48:43.790Z,28.08
2023-02-02T04:51:13.370Z,28.13
2023-02-02T04:53:41.261Z,23.67
2023-02-02T04:56:18.805Z,24.23
2023-02-02T04:58:46.093Z,26.38
2023-02-02T05:01:16.943Z,26.65
2023-02-02T05:03:44.570Z,25.83
2023-02-02T05:06:13.092Z,28.50
2023-02-02T05:08:43.285Z,25.63
2023-02-02T05:11:12.193Z,27.27
2023-02-02T05:13:39.111Z,24.38
2023-02-02T05:16:06.828Z,24.60
2023-02-02T05:18:33.863Z,25.27
2023-02-02T05:21:02.187Z,27.10
2023-02-02T05:23:29.775Z,26.80
2023-02-02T05:25:57.296Z,21.52
2023-02-02T05:28:24.691Z,18.73
2023-02-02T05:30:52.209Z,23.67
2023-02-02T05:33:19.824Z,26.08
2023-02-02T05:35:47.906Z,18.27
2023-02-02T05:38:15.681Z,16.40
2023-02-02T05:40:42.770Z,15.32
2023-02-02T05:43:09.635Z,16.45
2023-02-02T05:45:36.561Z,15.38
2023-02-02T05:48:03.503Z,17.77
2023-02-02T05:50:30.413Z,15.23
2023-02-02T05:52:58.564Z,18.58
2023-02-02T05:55:25.683Z,13.27
2023-02-02T05:57:52.721Z,16.33
2023-02-02T06:00:20.073Z,16.05
2023-02-02T06:02:46.930Z,14.55
2023-02-02T06:05:13.839Z,13.85
2023-02-02T06:07:40.801Z,12.80
2023-02-02T06:10:07.919Z,13.85
2023-02-02T06:12:34.739Z,14.25
2023-02-02T06:15:01.629Z,16.48
2023-02-02T06:17:30.569Z,17.27
2023-02-02T06:19:57.416Z,14.00
2023-02-02T06:22:24.337Z,16.77
2023-02-02T06:24:53.487Z,14.90
2023-02-02T06:27:21.306Z,14.10
2023-02-02T06:29:48.145Z,17.52
2023-02-02T06:32:15.084Z,14.68
2023-02-02T06:34:41.980Z,17.10
2023-02-02T06:37:08.823Z,16.10
2023-02-02T06:39:35.662Z,20.77
2023-02-02T06:42:19.240Z,18.42
2023-02-02T06:44:47.539Z,19.35
2023-02-02T06:47:14.409Z,19.48
2023-02-02T06:49:41.263Z,23.58
2023-02-02T06:52:08.211Z,19.10
2023-02-02T06:54:35.025Z,21.48
2023-02-02T06:57:01.920Z,17.90
2023-02-02T06:59:28.751Z,16.10
2023-02-02T07:01:55.662Z,20.92
2023-02-02T07:04:22.540Z,18.83
2023-02-02T07:06:49.381Z,21.00
2023-02-02T07:09:16.575Z,22.13
2023-02-02T07:11:45.077Z,15.70
2023-02-02T07:14:12.476Z,16.20
2023-02-02T07:16:39.292Z,19.52
2023-02-02T07:19:06.198Z,17.17
2023-02-02T07:21:36.565Z,16.42
2023-02-02T07:24:04.722Z,19.38
2023-02-02T07:26:31.799Z,18.33
2023-02-02T07:28:58.675Z,15.43
2023-02-02T07:31:27.234Z,15.80
2023-02-02T07:33:54.456Z,18.58
2023-02-02T07:36:23.945Z,16.80
2023-02-02T07:38:57.559Z,18.80
2023-02-02T07:41:24.942Z,24.38
2023-02-02T07:43:52.101Z,18.52
2023-02-02T07:46:20.828Z,17.42
2023-02-02T07:48:48.058Z,18.75
2023-02-02T07:51:18.233Z,18.63
2023-02-02T07:53:50.577Z,20.55
2023-02-02T07:56:20.248Z,19.13
2023-02-02T07:58:47.773Z,21.35
2023-02-02T08:01:16.606Z,24.17
2023-02-02T08:03:43.943Z,27.20
2023-02-02T08:06:12.950Z,32.33
2023-02-02T08:08:39.896Z,26.85
2023-02-02T08:11:10.212Z,32.83
2023-02-02T08:13:37.217Z,39.17
2023-02-02T08:16:04.601Z,35.90
2023-02-02T08:18:31.474Z,28.55
2023-02-02T08:20:59.835Z,32.25
2023-02-02T08:23:27.353Z,30.52
2023-02-02T08:25:55.410Z,30.08
2023-02-02T08:28:22.335Z,29.77
2023-02-02T08:30:49.320Z,29.67
2023-02-02T08:33:16.240Z,26.88
2023-02-02T08:35:44.477Z,27.67
2023-02-02T08:38:11.356Z,32.92
2023-02-02T08:40:38.221Z,28.70
2023-02-02T08:43:05.178Z,32.97
2023-02-02T08:46:01.323Z,31.65
2023-02-02T08:48:22.058Z,31.45
2023-02-02T08:50:56.339Z,30.58
2023-02-02T08:53:24.077Z,27.92
2023-02-02T08:56:11.190Z,28.92
2023-02-02T08:58:38.498Z,29.67
2023-02-02T09:01:09.289Z,30.38
2023-02-02T09:03:36.303Z,26.35
2023-02-02T09:06:08.579Z,27.50
2023-02-02T09:08:35.800Z,30.02
2023-02-02T09:11:19.438Z,29.52
2023-02-02T09:13:49.107Z,31.73
2023-02-02T09:16:18.183Z,27.42
2023-02-02T09:18:45.697Z,30.58
2023-02-02T09:21:15.198Z,31.52
2023-02-02T09:23:43.252Z,34.22
2023-02-02T09:26:17.887Z,30.70
2023-02-02T09:28:53.480Z,30.92
2023-02-02T09:31:20.859Z,31.48
2023-02-02T09:33:47.754Z,29.38
2023-02-02T09:36:20.472Z,30.05
2023-02-02T09:38:48.078Z,29.80
2023-02-02T09:41:26.525Z,33.05
2023-02-02T09:44:17.707Z,33.08
2023-02-02T09:47:11.565Z,29.92
2023-02-02T09:49:45.951Z,32.53
2023-02-02T09:52:25.979Z,32.10
2023-02-02T09:54:59.462Z,31.27
2023-02-02T09:57:31.402Z,30.38
2023-02-02T09:59:58.344Z,31.33
2023-02-02T10:02:39.290Z,31.58
2023-02-02T10:05:13.696Z,38.13
2023-02-02T10:07:45.982Z,25.45
2023-02-02T10:10:32.299Z,27.17
2023-02-02T10:13:12.052Z,30.52
2023-02-02T10:15:52.524Z,30.20
2023-02-02T10:18:33.272Z,31.27
2023-02-02T10:21:03.821Z,31.90
2023-02-02T10:23:40.265Z,29.92
2023-02-02T10:26:36.787Z,30.30
2023-02-02T10:29:15.084Z,30.13
2023-02-02T10:32:03.078Z,30.80
2023-02-02T10:34:38.532Z,23.00
2023-02-02T10:37:32.515Z,26.77
2023-02-02T10:40:41.148Z,27.50
2023-02-02T10:43:48.236Z,24.85
2023-02-02T10:46:30.562Z,20.50
2023-02-02T10:49:25.441Z,71.50
2023-02-02T10:52:19.995Z,33.47
2023-02-02T10:55:04.425Z,25.08
2023-02-02T10:58:01.731Z,24.50
2023-02-02T11:00:52.835Z,24.48
2023-02-02T11:03:23.765Z,17.95
2023-02-02T11:06:09.351Z,24.50
2023-02-02T11:08:43.313Z,25.65
2023-02-02T11:11:33.023Z,25.42
2023-02-02T11:14:08.450Z,18.55
2023-02-02T11:16:43.545Z,14.10
2023-02-02T11:19:20.107Z,23.27
2023-02-02T11:21:56.677Z,15.48
2023-02-02T11:24:41.280Z,15.63
2023-02-02T11:27:15.539Z,40.10
2023-02-02T11:29:46.623Z,96.03
2023-02-02T11:32:25.580Z,15.55
2023-02-02T11:35:20.950Z,18.55
2023-02-02T11:38:08.401Z,16.45
2023-02-02T11:40:45.213Z,21.20
2023-02-02T11:43:44.225Z,14.65
2023-02-02T11:46:20.455Z,16.90
2023-02-02T11:49:03.977Z,11.55
2023-02-02T11:51:32.196Z,15.35
2023-02-02T11:54:08.645Z,16.85
2023-02-02T11:56:38.566Z,8.75
2023-02-02T11:59:05.630Z,13.38
2023-02-02T12:01:39.962Z,14.43
2023-02-02T12:04:15.914Z,12.88
2023-02-02T12:06:42.971Z,16.08
2023-02-02T12:09:19.109Z,13.55
2023-02-02T12:11:55.172Z,16.20
2023-02-02T12:14:31.990Z,13.45
2023-02-02T12:17:16.775Z,14.30
2023-02-02T12:19:56.195Z,17.60
2023-02-02T12:22:41.675Z,11.80
2023-02-02T12:25:24.085Z,14.55
2023-02-02T12:28:07.271Z,13.38
2023-02-02T12:30:49.012Z,11.60
2023-02-02T12:33:21.585Z,15.23
2023-02-02T12:36:12.712Z,17.30
2023-02-02T12:39:10.264Z,14.57
2023-02-02T12:41:56.657Z,17.38
2023-02-02T12:44:33.743Z,13.68
2023-02-02T12:47:38.738Z,18.50
2023-02-02T12:53:14.058Z,11.02
2023-02-02T12:55:54.832Z,12.57
2023-02-02T12:58:42.578Z,17.20
2023-02-02T13:01:22.896Z,15.20
2023-02-02T13:04:14.042Z,13.93
2023-02-02T13:07:22.523Z,15.63
2023-02-02T13:10:01.301Z,12.77
2023-02-02T13:12:30.011Z,11.70
2023-02-02T13:15:03.109Z,14.10
2023-02-02T13:17:40.832Z,11.55
2023-02-02T13:21:00.212Z,14.02
2023-02-02T13:23:56.397Z,14.52
2023-02-02T13:26:32.149Z,12.05
2023-02-02T13:29:14.257Z,13.63
2023-02-02T13:32:02.520Z,16.85
2023-02-02T13:34:50.356Z,14.73
2023-02-02T13:37:25.394Z,12.68
2023-02-02T13:40:01.019Z,19.75
2023-02-02T13:42:45.407Z,17.63
2023-02-02T13:48:22.979Z,12.50
2023-02-02T13:51:11.525Z,13.90
2023-02-02T13:54:03.635Z,12.65
2023-02-02T13:56:49.176Z,14.25
2023-02-02T13:59:44.349Z,11.55
2023-02-02T14:02:40.777Z,9.75
2023-02-02T14:05:17.509Z,13.95
2023-02-02T14:07:47.028Z,12.38
2023-02-02T14:10:31.902Z,12.07
2023-02-02T14:13:32.822Z,12.45
2023-02-02T14:16:02.654Z,11.80
2023-02-02T14:18:51.050Z,11.40
2023-02-02T14:21:33.369Z,9.85
2023-02-02T14:24:23.078Z,11.80
2023-02-02T14:26:55.496Z,10.98
2023-02-02T14:29:35.926Z,9.48
2023-02-02T14:32:07.468Z,11.38
2023-02-02T14:34:44.980Z,11.68
2023-02-02T14:37:26.719Z,11.68
2023-02-02T14:40:06.195Z,11.20
2023-02-02T14:43:15.733Z,12.18
2023-02-02T14:45:44.362Z,11.00
2023-02-02T14:48:18.325Z,12.73
2023-02-02T14:50:57.366Z,16.95
2023-02-02T14:53:35.024Z,11.10
2023-02-02T14:56:10.846Z,13.52
2023-02-02T14:58:47.788Z,10.88
2023-02-02T15:01:21.604Z,11.82
2023-02-02T15:03:54.336Z,11.98
2023-02-02T15:06:34.500Z,15.20
2023-02-02T15:09:19.810Z,15.88
2023-02-02T15:12:19.607Z,13.38
2023-02-02T15:15:04.949Z,11.25
2023-02-02T15:17:41.118Z,15.20
2023-02-02T15:20:29.154Z,10.35
2023-02-02T15:23:08.145Z,11.93
2023-02-02T15:25:44.773Z,14.48
2023-02-02T15:28:26.609Z,10.02
2023-02-02T15:30:59.896Z,11.38
2023-02-02T15:33:36.649Z,11.40
2023-02-02T15:36:11.277Z,13.85
2023-02-02T15:38:41.453Z,11.50
2023-02-02T15:41:12.671Z,11.60
2023-02-02T15:43:40.475Z,10.82
2023-02-02T15:46:15.464Z,15.27
2023-02-02T15:48:43.784Z,15.45
2023-02-02T15:51:17.734Z,16.23
2023-02-02T15:53:44.461Z,18.77
2023-02-02T15:56:24.159Z,20.80
2023-02-02T15:58:53.518Z,17.23
2023-02-02T16:01:23.268Z,16.27
2023-02-02T16:03:52.828Z,14.60
2023-02-02T16:06:20.733Z,17.15
2023-02-02T16:08:49.504Z,18.38
2023-02-02T16:11:17.390Z,18.55
2023-02-02T16:14:03.787Z,15.93
2023-02-02T16:16:36.377Z,19.15
2023-02-02T16:19:03.412Z,16.58
2023-02-02T16:21:30.938Z,12.88
2023-02-02T16:23:59.080Z,12.65
2023-02-02T16:26:29.554Z,14.07
2023-02-02T16:28:56.918Z,13.73
2023-02-02T16:31:24.691Z,15.52
2023-02-02T16:33:51.734Z,18.67
2023-02-02T16:36:27.030Z,12.45
2023-02-02T16:38:54.995Z,16.38
2023-02-02T16:41:32.774Z,36.38
2023-02-02T16:44:28.556Z,13.98
2023-02-02T16:46:56.301Z,12.68
2023-02-02T16:49:26.304Z,14.20
2023-02-02T16:52:13.565Z,13.80
2023-02-02T16:54:55.073Z,16.52
2023-02-02T16:57:30.482Z,16.95
2023-02-02T17:00:02.423Z,15.02
2023-02-02T17:02:35.712Z,18.52
2023-02-02T17:05:16.654Z,23.00
2023-02-02T17:07:50.243Z,16.95
2023-02-02T17:10:16.995Z,18.83
2023-02-02T17:12:46.223Z,17.60
2023-02-02T17:15:19.252Z,24.70
2023-02-02T17:17:50.614Z,23.48
2023-02-02T17:20:19.295Z,25.33
2023-02-02T17:22:49.018Z,22.85
2023-02-02T17:25:19.514Z,24.58
2023-02-02T17:27:46.828Z,25.40
2023-02-02T17:30:16.968Z,24.20
2023-02-02T17:32:43.858Z,26.83
2023-02-02T17:35:19.365Z,26.55
2023-02-02T17:37:46.304Z,24.02
2023-02-02T17:40:15.371Z,26.13
2023-02-02T17:42:48.141Z,30.00
2023-02-02T17:45:34.855Z,25.48
2023-02-02T17:48:03.062Z,28.25
2023-02-02T17:50:32.039Z,31.00
2023-02-02T17:52:59.667Z,24.55
2023-02-02T17:55:42.027Z,28.40
2023-02-02T17:58:10.587Z,27.15
2023-02-02T18:00:39.463Z,26.77
2023-02-02T18:03:28.406Z,34.42
2023-02-02T18:05:57.669Z,28.98
2023-02-02T18:08:24.473Z,27.13
2023-02-02T18:10:51.246Z,24.58
2023-02-02T18:13:19.895Z,28.10
2023-02-02T18:15:48.023Z,25.33
2023-02-02T18:18:14.938Z,22.25
2023-02-02T18:20:46.799Z,27.00
2023-02-02T18:23:14.709Z,23.17
2023-02-02T18:25:43.051Z,24.95
2023-02-02T18:28:10.999Z,30.23
2023-02-02T18:30:39.250Z,25.70
2023-02-02T18:33:10.927Z,22.40
2023-02-02T18:35:45.237Z,35.10
2023-02-02T18:38:13.114Z,36.85
2023-02-02T18:40:39.877Z,36.67
2023-02-02T18:43:06.754Z,39.63
2023-02-02T18:45:33.688Z,38.95
2023-02-02T18:48:00.487Z,41.78
2023-02-02T18:50:27.431Z,36.80
2023-02-02T18:52:54.427Z,39.40
2023-02-02T18:55:21.245Z,41.10
2023-02-02T18:57:48.112Z,38.03
2023-02-02T19:00:15.771Z,37.08
2023-02-02T19:02:42.570Z,35.10
2023-02-02T19:05:28.469Z,33.13
2023-02-02T19:07:55.846Z,34.63
2023-02-02T19:10:24.726Z,31.08
2023-02-02T19:13:19.257Z,34.17
2023-02-02T19:15:48.368Z,25.88
2023-02-02T19:18:17.785Z,28.58
2023-02-02T19:20:45.455Z,27.13
2023-02-02T19:23:14.966Z,30.10
2023-02-02T19:25:45.541Z,29.60
2023-02-02T19:28:28.399Z,33.78
2023-02-02T19:31:01.381Z,33.10
2023-02-02T19:33:39.735Z,31.77
2023-02-02T19:36:14.816Z,35.28
2023-02-02T19:38:41.844Z,32.78
2023-02-02T19:41:20.996Z,32.78
2023-02-02T19:44:01.311Z,32.58
2023-02-02T19:46:30.731Z,31.02
2023-02-02T19:49:20.543Z,34.60
2023-02-02T19:51:51.469Z,32.22
2023-02-02T19:54:26.997Z,33.83
2023-02-02T19:57:00.632Z,37.95
2023-02-02T19:59:34.923Z,36.60
2023-02-02T20:02:24.835Z,38.13
2023-02-02T20:05:10.845Z,35.35
2023-02-02T20:07:39.281Z,37.53
2023-02-02T20:10:25.168Z,32.70
2023-02-02T20:12:53.347Z,34.28
2023-02-02T20:15:35.339Z,32.13
2023-02-02T20:18:12.901Z,36.47
2023-02-02T20:20:43.333Z,32.35
2023-02-02T20:23:28.702Z,31.40
2023-02-02T20:25:55.739Z,32.22
2023-02-02T20:28:43.093Z,31.05
2023-02-02T20:31:12.705Z,36.63
2023-02-02T20:33:51.987Z,28.17
2023-02-02T20:36:43.227Z,27.20
2023-02-02T20:39:16.082Z,31.17
2023-02-02T20:41:45.922Z,32.05
2023-02-02T20:44:12.707Z,31.17
2023-02-02T20:46:39.695Z,29.95
2023-02-02T20:49:06.737Z,31.65
2023-02-02T20:51:33.556Z,34.05
2023-02-02T20:54:00.395Z,30.25
2023-02-02T20:56:27.264Z,31.27
2023-02-02T20:58:54.138Z,30.70
2023-02-02T21:01:25.279Z,28.88
2023-02-02T21:03:52.462Z,28.95
2023-02-02T21:06:19.532Z,28.88
2023-02-02T21:08:51.322Z,27.88
2023-02-02T21:11:19.606Z,27.35
2023-02-02T21:13:46.454Z,28.38
2023-02-02T21:16:13.402Z,27.92
2023-02-02T21:18:40.282Z,29.45
2023-02-02T21:21:07.157Z,23.95
2023-02-02T21:23:33.952Z,23.48
2023-02-02T21:26:00.809Z,21.45
2023-02-02T21:28:27.632Z,19.15
2023-02-02T21:30:54.502Z,21.52
2023-02-02T21:33:21.691Z,21.40
2023-02-02T21:35:48.545Z,20.27
2023-02-02T21:38:16.331Z,19.27
2023-02-02T21:40:43.137Z,20.75
2023-02-02T21:43:18.640Z,22.25
2023-02-02T21:45:56.604Z,24.05
2023-02-02T21:48:35.418Z,21.48
2023-02-02T21:51:23.835Z,22.27
2023-02-02T21:53:50.869Z,22.27
2023-02-02T21:56:29.049Z,22.98
2023-02-02T21:59:00.313Z,20.58
2023-02-02T22:01:40.155Z,23.90
2023-02-02T22:04:25.606Z,24.02
2023-02-02T22:06:55.961Z,25.02
2023-02-02T22:09:25.936Z,20.55
2023-02-02T22:11:55.413Z,24.73
2023-02-02T22:14:39.946Z,22.27
2023-02-02T22:17:23.240Z,23.10
2023-02-02T22:20:10.294Z,21.90
2023-02-02T22:22:39.965Z,20.98
2023-02-02T22:25:40.203Z,20.30
2023-02-02T22:28:36.629Z,20.88
2023-02-02T22:31:04.987Z,23.23
2023-02-02T22:33:31.944Z,22.50
2023-02-02T22:35:58.783Z,23.00
2023-02-02T22:38:25.692Z,24.67
2023-02-02T22:40:53.409Z,25.27
2023-02-02T22:43:21.426Z,21.13
2023-02-02T22:45:49.125Z,22.83
2023-02-02T22:48:16.931Z,22.48
2023-02-02T22:50:44.522Z,19.23
2023-02-02T22:53:12.386Z,22.20
2023-02-02T22:55:39.232Z,20.63
2023-02-02T22:58:06.012Z,25.13
2023-02-02T23:00:33.241Z,21.52
2023-02-02T23:03:00.335Z,18.98
2023-02-02T23:05:27.999Z,20.50
2023-02-02T23:07:55.609Z,24.15
2023-02-02T23:10:26.695Z,21.13
2023-02-02T23:12:55.640Z,23.13
2023-02-02T23:15:22.862Z,21.88
2023-02-02T23:17:49.761Z,23.75
2023-02-02T23:20:16.944Z,22.38
2023-02-02T23:22:43.908Z,20.75
2023-02-02T23:25:11.833Z,24.35
2023-02-02T23:27:38.842Z,22.27
2023-02-02T23:30:07.532Z,24.85
2023-02-02T23:32:34.833Z,20.52
2023-02-02T23:35:01.749Z,20.17
2023-02-02T23:37:28.537Z,21.20
2023-02-02T23:39:55.314Z,20.17
2023-02-02T23:42:22.089Z,21.40
2023-02-02T23:44:48.812Z,19.27
2023-02-02T23:47:15.783Z,22.00
2023-02-02T23:49:42.584Z,22.48
2023-02-02T23:52:09.587Z,23.50
2023-02-02T23:54:36.968Z,22.48
2023-02-02T23:57:04.170Z,21.33
2023-02-02T23:59:30.888Z,21.88
